sensor_id;sensor_type;location;lat;lon;timestamp;P1;durP1;ratioP1;P2;durP2;ratioP2
65328;SDS011;51941;52.210;5.158;2023-03-01T10:29:09;5.70;;;4.35;;
65328;SDS011;51941;52.210;5.158;2023-03-01T10:31:39;5.70;;;4.38;;
65328;SDS011;51941;52.210;5.158;2023-03-01T10:34:13;6.95;;;4.15;;
65328;SDS011;51941;52.210;5.158;2023-03-01T10:36:42;6.43;;;4.18;;
65328;SDS011;51941;52.210;5.158;2023-03-01T10:39:19;5.35;;;4.50;;
65328;SDS011;51941;52.210;5.158;2023-03-01T10:41:57;5.47;;;3.97;;
65328;SDS011;51941;52.210;5.158;2023-03-01T10:44:41;7.22;;;4.32;;
65328;SDS011;51941;52.210;5.158;2023-03-01T10:47:20;6.50;;;4.38;;
65328;SDS011;51941;52.210;5.158;2023-03-01T10:49:58;8.35;;;4.30;;
65328;SDS011;51941;52.210;5.158;2023-03-01T10:52:31;6.45;;;4.38;;
65328;SDS011;51941;52.210;5.158;2023-03-01T10:55:01;4.18;;;3.63;;
65328;SDS011;51941;52.210;5.158;2023-03-01T10:57:33;5.95;;;3.47;;
65328;SDS011;51941;52.210;5.158;2023-03-01T11:00:16;7.03;;;4.25;;
65328;SDS011;51941;52.210;5.158;2023-03-01T11:02:47;6.60;;;3.78;;
65328;SDS011;51941;52.210;5.158;2023-03-01T11:05:16;4.80;;;3.55;;
65328;SDS011;51941;52.210;5.158;2023-03-01T11:07:50;6.65;;;4.28;;
65328;SDS011;51941;52.210;5.158;2023-03-01T11:10:19;4.90;;;3.75;;
65328;SDS011;51941;52.210;5.158;2023-03-01T11:12:48;5.70;;;4.13;;
65328;SDS011;51941;52.210;5.158;2023-03-01T11:15:24;8.13;;;4.93;;
65328;SDS011;51941;52.210;5.158;2023-03-01T11:17:52;5.80;;;3.60;;
65328;SDS011;51941;52.210;5.158;2023-03-01T11:20:24;7.70;;;4.18;;
65328;SDS011;51941;52.210;5.158;2023-03-01T11:22:56;7.55;;;4.07;;
65328;SDS011;51941;52.210;5.158;2023-03-01T11:25:27;6.40;;;3.67;;
65328;SDS011;51941;52.210;5.158;2023-03-01T11:27:58;7.03;;;3.70;;
65328;SDS011;51941;52.210;5.158;2023-03-01T11:30:30;8.02;;;4.15;;
65328;SDS011;51941;52.210;5.158;2023-03-01T11:33:10;5.70;;;3.40;;
65328;SDS011;51941;52.210;5.158;2023-03-01T11:35:44;9.02;;;4.13;;
65328;SDS011;51941;52.210;5.158;2023-03-01T11:38:16;7.25;;;4.22;;
65328;SDS011;51941;52.210;5.158;2023-03-01T11:40:48;5.97;;;3.58;;
65328;SDS011;51941;52.210;5.158;2023-03-01T11:43:20;5.40;;;3.45;;
65328;SDS011;51941;52.210;5.158;2023-03-01T11:49:02;6.28;;;4.05;;
65328;SDS011;51941;52.210;5.158;2023-03-01T11:51:40;5.70;;;3.97;;
65328;SDS011;51941;52.210;5.158;2023-03-01T11:54:18;7.32;;;3.80;;
65328;SDS011;51941;52.210;5.158;2023-03-01T11:56:55;11.02;;;4.47;;
65328;SDS011;51941;52.210;5.158;2023-03-01T11:59:33;7.07;;;3.72;;
65328;SDS011;51941;52.210;5.158;2023-03-01T12:02:34;6.63;;;3.92;;
65328;SDS011;51941;52.210;5.158;2023-03-01T12:05:41;8.27;;;3.90;;
65328;SDS011;51941;52.210;5.158;2023-03-01T12:08:24;6.07;;;3.97;;
65328;SDS011;51941;52.210;5.158;2023-03-01T12:11:00;5.13;;;4.00;;
65328;SDS011;51941;52.210;5.158;2023-03-01T12:13:48;6.15;;;3.55;;
65328;SDS011;51941;52.210;5.158;2023-03-01T12:16:40;5.88;;;4.30;;
65328;SDS011;51941;52.210;5.158;2023-03-01T12:22:28;9.73;;;4.18;;
65328;SDS011;51941;52.210;5.158;2023-03-01T12:31:00;6.22;;;3.95;;
65328;SDS011;51941;52.210;5.158;2023-03-01T12:33:42;9.18;;;4.13;;
65328;SDS011;51941;52.210;5.158;2023-03-01T12:39:15;6.75;;;4.10;;
65328;SDS011;51941;52.210;5.158;2023-03-01T12:41:55;5.63;;;3.78;;
65328;SDS011;51941;52.210;5.158;2023-03-01T12:44:45;6.10;;;3.42;;
65328;SDS011;51941;52.210;5.158;2023-03-01T12:47:28;6.38;;;4.15;;
65328;SDS011;51941;52.210;5.158;2023-03-01T12:50:11;9.63;;;4.00;;
65328;SDS011;51941;52.210;5.158;2023-03-01T12:52:47;4.45;;;3.50;;
65328;SDS011;51941;52.210;5.158;2023-03-01T12:55:24;5.47;;;3.38;;
65328;SDS011;51941;52.210;5.158;2023-03-01T12:57:58;6.85;;;3.70;;
65328;SDS011;51941;52.210;5.158;2023-03-01T13:00:35;5.90;;;3.13;;
65328;SDS011;51941;52.210;5.158;2023-03-01T13:03:12;5.90;;;3.50;;
65328;SDS011;51941;52.210;5.158;2023-03-01T13:05:53;5.10;;;3.65;;
65328;SDS011;51941;52.210;5.158;2023-03-01T13:08:33;6.30;;;3.20;;
65328;SDS011;51941;52.210;5.158;2023-03-01T13:11:11;4.35;;;3.20;;
65328;SDS011;51941;52.210;5.158;2023-03-01T13:13:43;4.78;;;3.50;;
65328;SDS011;51941;52.210;5.158;2023-03-01T13:19:09;5.40;;;3.03;;
65328;SDS011;51941;52.210;5.158;2023-03-01T13:21:39;5.32;;;3.30;;
65328;SDS011;51941;52.210;5.158;2023-03-01T13:27:09;7.68;;;4.13;;
65328;SDS011;51941;52.210;5.158;2023-03-01T13:29:43;6.47;;;3.97;;
65328;SDS011;51941;52.210;5.158;2023-03-01T13:32:22;6.82;;;3.78;;
65328;SDS011;51941;52.210;5.158;2023-03-01T13:34:50;6.78;;;3.70;;
65328;SDS011;51941;52.210;5.158;2023-03-01T13:37:19;5.18;;;3.17;;
65328;SDS011;51941;52.210;5.158;2023-03-01T13:39:48;5.30;;;2.90;;
65328;SDS011;51941;52.210;5.158;2023-03-01T13:42:31;4.17;;;3.23;;
65328;SDS011;51941;52.210;5.158;2023-03-01T13:45:02;4.03;;;3.22;;
65328;SDS011;51941;52.210;5.158;2023-03-01T13:47:32;5.25;;;3.47;;
65328;SDS011;51941;52.210;5.158;2023-03-01T13:50:05;4.53;;;3.53;;
65328;SDS011;51941;52.210;5.158;2023-03-01T13:52:37;4.47;;;3.40;;
65328;SDS011;51941;52.210;5.158;2023-03-01T13:55:14;7.32;;;3.58;;
65328;SDS011;51941;52.210;5.158;2023-03-01T13:57:44;8.07;;;3.35;;
65328;SDS011;51941;52.210;5.158;2023-03-01T14:00:24;5.40;;;3.13;;
65328;SDS011;51941;52.210;5.158;2023-03-01T14:03:00;5.35;;;3.42;;
65328;SDS011;51941;52.210;5.158;2023-03-01T14:05:32;6.50;;;3.17;;
65328;SDS011;51941;52.210;5.158;2023-03-01T14:07:59;6.30;;;3.90;;
65328;SDS011;51941;52.210;5.158;2023-03-01T14:10:35;4.80;;;3.28;;
65328;SDS011;51941;52.210;5.158;2023-03-01T14:13:23;5.80;;;3.40;;
65328;SDS011;51941;52.210;5.158;2023-03-01T14:16:04;5.68;;;3.33;;
65328;SDS011;51941;52.210;5.158;2023-03-01T14:18:42;3.63;;;3.17;;
65328;SDS011;51941;52.210;5.158;2023-03-01T14:21:17;6.68;;;3.10;;
65328;SDS011;51941;52.210;5.158;2023-03-01T14:23:44;8.40;;;3.88;;
65328;SDS011;51941;52.210;5.158;2023-03-01T14:26:13;4.63;;;3.10;;
65328;SDS011;51941;52.210;5.158;2023-03-01T14:28:46;4.50;;;3.08;;
65328;SDS011;51941;52.210;5.158;2023-03-01T14:31:35;4.93;;;3.47;;
65328;SDS011;51941;52.210;5.158;2023-03-01T14:34:03;4.77;;;3.57;;
65328;SDS011;51941;52.210;5.158;2023-03-01T14:36:32;4.72;;;3.22;;
65328;SDS011;51941;52.210;5.158;2023-03-01T14:39:00;5.75;;;3.35;;
65328;SDS011;51941;52.210;5.158;2023-03-01T14:41:32;4.05;;;3.20;;
65328;SDS011;51941;52.210;5.158;2023-03-01T14:44:02;4.40;;;2.90;;
65328;SDS011;51941;52.210;5.158;2023-03-01T14:46:33;7.38;;;3.75;;
65328;SDS011;51941;52.210;5.158;2023-03-01T14:49:02;8.65;;;3.67;;
65328;SDS011;51941;52.210;5.158;2023-03-01T14:51:34;5.33;;;3.27;;
65328;SDS011;51941;52.210;5.158;2023-03-01T14:54:03;5.85;;;3.55;;
65328;SDS011;51941;52.210;5.158;2023-03-01T14:56:46;6.03;;;3.47;;
65328;SDS011;51941;52.210;5.158;2023-03-01T14:59:13;6.07;;;3.27;;
65328;SDS011;51941;52.210;5.158;2023-03-01T15:01:40;3.45;;;2.85;;
65328;SDS011;51941;52.210;5.158;2023-03-01T15:04:09;7.60;;;3.08;;
65328;SDS011;51941;52.210;5.158;2023-03-01T15:06:38;5.63;;;3.47;;
65328;SDS011;51941;52.210;5.158;2023-03-01T15:09:05;5.80;;;3.65;;
65328;SDS011;51941;52.210;5.158;2023-03-01T15:11:33;6.72;;;3.42;;
65328;SDS011;51941;52.210;5.158;2023-03-01T15:14:05;5.38;;;3.15;;
65328;SDS011;51941;52.210;5.158;2023-03-01T15:16:55;10.07;;;3.50;;
65328;SDS011;51941;52.210;5.158;2023-03-01T15:19:23;4.18;;;3.17;;
65328;SDS011;51941;52.210;5.158;2023-03-01T15:21:54;7.03;;;3.28;;
65328;SDS011;51941;52.210;5.158;2023-03-01T15:24:23;6.28;;;3.35;;
65328;SDS011;51941;52.210;5.158;2023-03-01T15:26:53;7.18;;;3.20;;
65328;SDS011;51941;52.210;5.158;2023-03-01T15:31:56;8.18;;;3.60;;
65328;SDS011;51941;52.210;5.158;2023-03-01T15:34:25;5.68;;;3.47;;
65328;SDS011;51941;52.210;5.158;2023-03-01T15:36:55;7.57;;;3.72;;
65328;SDS011;51941;52.210;5.158;2023-03-01T15:39:27;6.70;;;4.00;;
65328;SDS011;51941;52.210;5.158;2023-03-01T15:42:02;7.60;;;3.95;;
65328;SDS011;51941;52.210;5.158;2023-03-01T15:44:31;6.07;;;3.20;;
65328;SDS011;51941;52.210;5.158;2023-03-01T15:47:00;7.40;;;3.53;;
65328;SDS011;51941;52.210;5.158;2023-03-01T15:49:33;9.00;;;4.10;;
65328;SDS011;51941;52.210;5.158;2023-03-01T15:52:04;7.50;;;3.72;;
65328;SDS011;51941;52.210;5.158;2023-03-01T15:54:36;4.85;;;3.17;;
65328;SDS011;51941;52.210;5.158;2023-03-01T15:57:08;4.13;;;3.33;;
65328;SDS011;51941;52.210;5.158;2023-03-01T15:59:38;4.93;;;3.55;;
65328;SDS011;51941;52.210;5.158;2023-03-01T16:02:09;7.18;;;4.03;;
65328;SDS011;51941;52.210;5.158;2023-03-01T16:04:37;7.32;;;3.70;;
65328;SDS011;51941;52.210;5.158;2023-03-01T16:07:04;6.65;;;3.80;;
65328;SDS011;51941;52.210;5.158;2023-03-01T16:09:32;5.93;;;3.72;;
65328;SDS011;51941;52.210;5.158;2023-03-01T16:11:58;5.60;;;3.65;;
65328;SDS011;51941;52.210;5.158;2023-03-01T16:14:25;6.22;;;4.35;;
65328;SDS011;51941;52.210;5.158;2023-03-01T16:16:52;9.38;;;4.60;;
65328;SDS011;51941;52.210;5.158;2023-03-01T16:19:20;8.32;;;4.47;;
65328;SDS011;51941;52.210;5.158;2023-03-01T16:21:46;5.97;;;4.10;;
65328;SDS011;51941;52.210;5.158;2023-03-01T16:24:14;6.40;;;4.57;;
65328;SDS011;51941;52.210;5.158;2023-03-01T16:26:42;7.72;;;4.22;;
65328;SDS011;51941;52.210;5.158;2023-03-01T16:29:09;8.50;;;4.82;;
65328;SDS011;51941;52.210;5.158;2023-03-01T16:31:35;7.35;;;4.25;;
65328;SDS011;51941;52.210;5.158;2023-03-01T16:34:02;6.43;;;4.13;;
65328;SDS011;51941;52.210;5.158;2023-03-01T16:36:30;6.53;;;4.18;;
65328;SDS011;51941;52.210;5.158;2023-03-01T16:38:57;6.82;;;4.50;;
65328;SDS011;51941;52.210;5.158;2023-03-01T16:41:25;10.88;;;4.90;;
65328;SDS011;51941;52.210;5.158;2023-03-01T16:43:53;9.90;;;5.32;;
65328;SDS011;51941;52.210;5.158;2023-03-01T16:46:21;7.13;;;4.53;;
65328;SDS011;51941;52.210;5.158;2023-03-01T16:48:49;6.07;;;4.20;;
65328;SDS011;51941;52.210;5.158;2023-03-01T16:51:17;12.80;;;4.47;;
65328;SDS011;51941;52.210;5.158;2023-03-01T16:53:45;7.20;;;4.45;;
65328;SDS011;51941;52.210;5.158;2023-03-01T16:56:12;9.70;;;5.05;;
65328;SDS011;51941;52.210;5.158;2023-03-01T16:58:40;7.32;;;4.60;;
65328;SDS011;51941;52.210;5.158;2023-03-01T17:01:07;8.50;;;5.10;;
65328;SDS011;51941;52.210;5.158;2023-03-01T17:03:35;6.72;;;5.03;;
65328;SDS011;51941;52.210;5.158;2023-03-01T17:06:04;7.80;;;4.75;;
65328;SDS011;51941;52.210;5.158;2023-03-01T17:08:31;7.30;;;4.53;;
65328;SDS011;51941;52.210;5.158;2023-03-01T17:11:03;7.07;;;5.22;;
65328;SDS011;51941;52.210;5.158;2023-03-01T17:13:31;9.10;;;4.82;;
65328;SDS011;51941;52.210;5.158;2023-03-01T17:15:59;7.15;;;4.90;;
65328;SDS011;51941;52.210;5.158;2023-03-01T17:18:26;8.15;;;5.38;;
65328;SDS011;51941;52.210;5.158;2023-03-01T17:20:52;9.13;;;5.50;;
65328;SDS011;51941;52.210;5.158;2023-03-01T17:23:19;9.10;;;5.57;;
65328;SDS011;51941;52.210;5.158;2023-03-01T17:25:46;7.88;;;4.95;;
65328;SDS011;51941;52.210;5.158;2023-03-01T17:28:14;10.60;;;4.88;;
65328;SDS011;51941;52.210;5.158;2023-03-01T17:30:41;11.70;;;6.40;;
65328;SDS011;51941;52.210;5.158;2023-03-01T17:33:09;10.40;;;6.07;;
65328;SDS011;51941;52.210;5.158;2023-03-01T17:35:36;11.15;;;5.95;;
65328;SDS011;51941;52.210;5.158;2023-03-01T17:38:03;9.85;;;5.78;;
65328;SDS011;51941;52.210;5.158;2023-03-01T17:40:30;8.80;;;5.55;;
65328;SDS011;51941;52.210;5.158;2023-03-01T17:42:57;9.20;;;5.82;;
65328;SDS011;51941;52.210;5.158;2023-03-01T17:45:26;9.85;;;5.93;;
65328;SDS011;51941;52.210;5.158;2023-03-01T17:47:52;10.85;;;5.55;;
65328;SDS011;51941;52.210;5.158;2023-03-01T17:50:19;8.88;;;6.00;;
65328;SDS011;51941;52.210;5.158;2023-03-01T17:52:46;8.60;;;5.28;;
65328;SDS011;51941;52.210;5.158;2023-03-01T17:55:13;9.38;;;5.60;;
65328;SDS011;51941;52.210;5.158;2023-03-01T17:57:41;7.93;;;5.32;;
65328;SDS011;51941;52.210;5.158;2023-03-01T18:00:09;10.90;;;5.35;;
65328;SDS011;51941;52.210;5.158;2023-03-01T18:05:05;9.27;;;5.90;;
65328;SDS011;51941;52.210;5.158;2023-03-01T18:07:33;7.78;;;4.95;;
65328;SDS011;51941;52.210;5.158;2023-03-01T18:09:59;9.95;;;5.90;;
65328;SDS011;51941;52.210;5.158;2023-03-01T18:12:26;8.70;;;5.82;;
65328;SDS011;51941;52.210;5.158;2023-03-01T18:14:53;9.35;;;6.28;;
65328;SDS011;51941;52.210;5.158;2023-03-01T18:17:19;8.95;;;5.72;;
65328;SDS011;51941;52.210;5.158;2023-03-01T18:19:47;8.52;;;5.90;;
65328;SDS011;51941;52.210;5.158;2023-03-01T18:22:14;8.60;;;5.65;;
65328;SDS011;51941;52.210;5.158;2023-03-01T18:24:41;8.70;;;6.05;;
65328;SDS011;51941;52.210;5.158;2023-03-01T18:27:09;9.02;;;6.18;;
65328;SDS011;51941;52.210;5.158;2023-03-01T18:29:36;10.55;;;6.70;;
65328;SDS011;51941;52.210;5.158;2023-03-01T18:32:03;8.50;;;5.68;;
65328;SDS011;51941;52.210;5.158;2023-03-01T18:34:31;11.32;;;5.57;;
65328;SDS011;51941;52.210;5.158;2023-03-01T18:37:00;10.13;;;6.30;;
65328;SDS011;51941;52.210;5.158;2023-03-01T18:39:27;9.85;;;5.45;;
65328;SDS011;51941;52.210;5.158;2023-03-01T18:41:54;7.90;;;5.57;;
65328;SDS011;51941;52.210;5.158;2023-03-01T18:44:20;8.82;;;5.97;;
65328;SDS011;51941;52.210;5.158;2023-03-01T18:46:47;8.73;;;5.85;;
65328;SDS011;51941;52.210;5.158;2023-03-01T18:49:14;11.52;;;7.55;;
65328;SDS011;51941;52.210;5.158;2023-03-01T18:51:41;13.00;;;7.20;;
65328;SDS011;51941;52.210;5.158;2023-03-01T18:54:11;15.30;;;7.78;;
65328;SDS011;51941;52.210;5.158;2023-03-01T18:56:38;12.95;;;7.72;;
65328;SDS011;51941;52.210;5.158;2023-03-01T18:59:05;16.40;;;8.48;;
65328;SDS011;51941;52.210;5.158;2023-03-01T19:01:31;17.17;;;9.32;;
65328;SDS011;51941;52.210;5.158;2023-03-01T19:03:59;13.75;;;7.32;;
65328;SDS011;51941;52.210;5.158;2023-03-01T19:06:27;13.32;;;6.95;;
65328;SDS011;51941;52.210;5.158;2023-03-01T19:08:55;12.38;;;7.20;;
65328;SDS011;51941;52.210;5.158;2023-03-01T19:11:24;12.73;;;7.38;;
65328;SDS011;51941;52.210;5.158;2023-03-01T19:13:54;13.95;;;8.00;;
65328;SDS011;51941;52.210;5.158;2023-03-01T19:16:23;15.68;;;8.20;;
65328;SDS011;51941;52.210;5.158;2023-03-01T19:18:53;12.27;;;7.45;;
65328;SDS011;51941;52.210;5.158;2023-03-01T19:21:21;14.95;;;8.52;;
65328;SDS011;51941;52.210;5.158;2023-03-01T19:23:49;12.93;;;8.05;;
65328;SDS011;51941;52.210;5.158;2023-03-01T19:26:16;12.40;;;8.07;;
65328;SDS011;51941;52.210;5.158;2023-03-01T19:28:46;16.90;;;9.65;;
65328;SDS011;51941;52.210;5.158;2023-03-01T19:31:13;15.05;;;8.68;;
65328;SDS011;51941;52.210;5.158;2023-03-01T19:33:42;14.95;;;8.40;;
65328;SDS011;51941;52.210;5.158;2023-03-01T19:36:09;14.90;;;8.57;;
65328;SDS011;51941;52.210;5.158;2023-03-01T19:38:38;13.95;;;7.68;;
65328;SDS011;51941;52.210;5.158;2023-03-01T19:41:07;13.60;;;7.72;;
65328;SDS011;51941;52.210;5.158;2023-03-01T19:43:35;14.05;;;8.50;;
65328;SDS011;51941;52.210;5.158;2023-03-01T19:46:03;16.95;;;8.35;;
65328;SDS011;51941;52.210;5.158;2023-03-01T19:48:30;16.15;;;8.45;;
65328;SDS011;51941;52.210;5.158;2023-03-01T19:50:57;14.30;;;8.43;;
65328;SDS011;51941;52.210;5.158;2023-03-01T19:53:24;16.00;;;8.15;;
65328;SDS011;51941;52.210;5.158;2023-03-01T19:55:55;16.90;;;9.18;;
65328;SDS011;51941;52.210;5.158;2023-03-01T19:58:23;14.80;;;9.45;;
65328;SDS011;51941;52.210;5.158;2023-03-01T20:00:50;13.55;;;8.57;;
65328;SDS011;51941;52.210;5.158;2023-03-01T20:03:22;14.43;;;9.23;;
65328;SDS011;51941;52.210;5.158;2023-03-01T20:05:50;13.85;;;8.68;;
65328;SDS011;51941;52.210;5.158;2023-03-01T20:08:16;15.02;;;9.13;;
65328;SDS011;51941;52.210;5.158;2023-03-01T20:10:43;13.38;;;8.52;;
65328;SDS011;51941;52.210;5.158;2023-03-01T20:13:10;15.75;;;9.43;;
65328;SDS011;51941;52.210;5.158;2023-03-01T20:15:39;15.73;;;8.85;;
65328;SDS011;51941;52.210;5.158;2023-03-01T20:18:06;13.50;;;8.20;;
65328;SDS011;51941;52.210;5.158;2023-03-01T20:20:35;15.75;;;8.82;;
65328;SDS011;51941;52.210;5.158;2023-03-01T20:23:02;19.27;;;9.45;;
65328;SDS011;51941;52.210;5.158;2023-03-01T20:25:29;14.52;;;9.13;;
65328;SDS011;51941;52.210;5.158;2023-03-01T20:27:55;16.90;;;9.30;;
65328;SDS011;51941;52.210;5.158;2023-03-01T20:30:22;15.80;;;9.10;;
65328;SDS011;51941;52.210;5.158;2023-03-01T20:32:49;16.60;;;9.45;;
65328;SDS011;51941;52.210;5.158;2023-03-01T20:35:16;16.30;;;9.75;;
65328;SDS011;51941;52.210;5.158;2023-03-01T20:37:44;17.08;;;9.63;;
65328;SDS011;51941;52.210;5.158;2023-03-01T20:40:11;18.50;;;10.25;;
65328;SDS011;51941;52.210;5.158;2023-03-01T20:42:38;17.45;;;9.95;;
65328;SDS011;51941;52.210;5.158;2023-03-01T20:45:05;17.33;;;10.57;;
65328;SDS011;51941;52.210;5.158;2023-03-01T20:47:32;19.20;;;10.63;;
65328;SDS011;51941;52.210;5.158;2023-03-01T20:49:59;18.58;;;11.63;;
65328;SDS011;51941;52.210;5.158;2023-03-01T20:52:26;19.02;;;9.63;;
65328;SDS011;51941;52.210;5.158;2023-03-01T20:54:54;14.38;;;9.05;;
65328;SDS011;51941;52.210;5.158;2023-03-01T20:57:21;14.13;;;7.95;;
65328;SDS011;51941;52.210;5.158;2023-03-01T20:59:48;13.68;;;8.52;;
65328;SDS011;51941;52.210;5.158;2023-03-01T21:02:14;13.18;;;7.63;;
65328;SDS011;51941;52.210;5.158;2023-03-01T21:04:41;14.63;;;8.45;;
65328;SDS011;51941;52.210;5.158;2023-03-01T21:07:08;15.32;;;9.15;;
65328;SDS011;51941;52.210;5.158;2023-03-01T21:09:34;15.32;;;9.32;;
65328;SDS011;51941;52.210;5.158;2023-03-01T21:12:02;15.50;;;8.82;;
65328;SDS011;51941;52.210;5.158;2023-03-01T21:14:29;14.27;;;8.40;;
65328;SDS011;51941;52.210;5.158;2023-03-01T21:17:06;13.55;;;8.50;;
65328;SDS011;51941;52.210;5.158;2023-03-01T21:19:34;14.07;;;8.27;;
65328;SDS011;51941;52.210;5.158;2023-03-01T21:22:01;14.35;;;8.90;;
65328;SDS011;51941;52.210;5.158;2023-03-01T21:24:28;13.43;;;8.98;;
65328;SDS011;51941;52.210;5.158;2023-03-01T21:26:55;17.40;;;9.40;;
65328;SDS011;51941;52.210;5.158;2023-03-01T21:29:23;14.32;;;8.40;;
65328;SDS011;51941;52.210;5.158;2023-03-01T21:31:50;14.93;;;8.82;;
65328;SDS011;51941;52.210;5.158;2023-03-01T21:34:16;15.63;;;9.13;;
65328;SDS011;51941;52.210;5.158;2023-03-01T21:36:43;17.70;;;10.00;;
65328;SDS011;51941;52.210;5.158;2023-03-01T21:39:10;16.70;;;8.85;;
65328;SDS011;51941;52.210;5.158;2023-03-01T21:41:37;14.52;;;8.13;;
65328;SDS011;51941;52.210;5.158;2023-03-01T21:44:04;15.15;;;8.43;;
65328;SDS011;51941;52.210;5.158;2023-03-01T21:46:34;11.98;;;8.43;;
65328;SDS011;51941;52.210;5.158;2023-03-01T21:49:02;12.52;;;8.15;;
65328;SDS011;51941;52.210;5.158;2023-03-01T21:51:29;13.30;;;7.90;;
65328;SDS011;51941;52.210;5.158;2023-03-01T21:53:58;12.77;;;8.00;;
65328;SDS011;51941;52.210;5.158;2023-03-01T21:56:26;11.43;;;7.22;;
65328;SDS011;51941;52.210;5.158;2023-03-01T21:58:55;12.35;;;7.20;;
65328;SDS011;51941;52.210;5.158;2023-03-01T22:01:23;12.65;;;7.45;;
65328;SDS011;51941;52.210;5.158;2023-03-01T22:03:53;12.02;;;7.07;;
65328;SDS011;51941;52.210;5.158;2023-03-01T22:06:22;20.10;;;10.15;;
65328;SDS011;51941;52.210;5.158;2023-03-01T22:08:52;17.52;;;10.43;;
65328;SDS011;51941;52.210;5.158;2023-03-01T22:13:50;20.17;;;11.30;;
65328;SDS011;51941;52.210;5.158;2023-03-01T22:16:18;18.55;;;11.48;;
65328;SDS011;51941;52.210;5.158;2023-03-01T22:18:46;17.20;;;10.27;;
65328;SDS011;51941;52.210;5.158;2023-03-01T22:21:14;15.20;;;9.70;;
65328;SDS011;51941;52.210;5.158;2023-03-01T22:23:42;15.63;;;9.98;;
65328;SDS011;51941;52.210;5.158;2023-03-01T22:26:18;16.20;;;10.93;;
65328;SDS011;51941;52.210;5.158;2023-03-01T22:28:47;24.40;;;13.30;;
65328;SDS011;51941;52.210;5.158;2023-03-01T22:31:14;18.77;;;11.02;;
65328;SDS011;51941;52.210;5.158;2023-03-01T22:33:40;18.58;;;11.55;;
65328;SDS011;51941;52.210;5.158;2023-03-01T22:36:07;17.77;;;11.65;;
65328;SDS011;51941;52.210;5.158;2023-03-01T22:38:36;21.23;;;12.95;;
65328;SDS011;51941;52.210;5.158;2023-03-01T22:41:04;24.55;;;15.55;;
65328;SDS011;51941;52.210;5.158;2023-03-01T22:43:31;25.95;;;13.95;;
65328;SDS011;51941;52.210;5.158;2023-03-01T22:45:58;24.95;;;14.70;;
65328;SDS011;51941;52.210;5.158;2023-03-01T22:48:25;23.88;;;14.40;;
65328;SDS011;51941;52.210;5.158;2023-03-01T22:50:53;26.42;;;14.60;;
65328;SDS011;51941;52.210;5.158;2023-03-01T22:53:20;28.83;;;16.65;;
65328;SDS011;51941;52.210;5.158;2023-03-01T22:55:48;26.92;;;14.70;;
65328;SDS011;51941;52.210;5.158;2023-03-01T22:58:15;27.27;;;16.70;;
65328;SDS011;51941;52.210;5.158;2023-03-01T23:00:41;28.80;;;16.60;;
65328;SDS011;51941;52.210;5.158;2023-03-01T23:03:08;32.70;;;19.58;;
65328;SDS011;51941;52.210;5.158;2023-03-01T23:05:35;29.48;;;18.50;;
65328;SDS011;51941;52.210;5.158;2023-03-01T23:08:02;30.83;;;17.75;;
65328;SDS011;51941;52.210;5.158;2023-03-01T23:10:29;31.63;;;18.48;;
65328;SDS011;51941;52.210;5.158;2023-03-01T23:12:57;35.42;;;21.55;;
65328;SDS011;51941;52.210;5.158;2023-03-01T23:15:24;33.10;;;19.60;;
65328;SDS011;51941;52.210;5.158;2023-03-01T23:17:51;36.90;;;21.50;;
65328;SDS011;51941;52.210;5.158;2023-03-01T23:20:18;42.00;;;23.35;;
65328;SDS011;51941;52.210;5.158;2023-03-01T23:22:45;35.55;;;22.17;;
65328;SDS011;51941;52.210;5.158;2023-03-01T23:25:12;37.70;;;23.25;;
65328;SDS011;51941;52.210;5.158;2023-03-01T23:27:39;36.63;;;22.13;;
65328;SDS011;51941;52.210;5.158;2023-03-01T23:30:08;44.45;;;25.13;;
65328;SDS011;51941;52.210;5.158;2023-03-01T23:32:36;40.70;;;24.70;;
65328;SDS011;51941;52.210;5.158;2023-03-01T23:35:05;40.05;;;23.42;;
65328;SDS011;51941;52.210;5.158;2023-03-01T23:37:34;42.67;;;22.90;;
65328;SDS011;51941;52.210;5.158;2023-03-01T23:40:01;37.90;;;22.73;;
65328;SDS011;51941;52.210;5.158;2023-03-01T23:42:30;39.83;;;23.43;;
65328;SDS011;51941;52.210;5.158;2023-03-01T23:44:57;39.38;;;23.27;;
65328;SDS011;51941;52.210;5.158;2023-03-01T23:47:25;39.05;;;23.15;;
65328;SDS011;51941;52.210;5.158;2023-03-01T23:49:52;42.63;;;24.33;;
65328;SDS011;51941;52.210;5.158;2023-03-01T23:52:21;41.83;;;25.73;;
65328;SDS011;51941;52.210;5.158;2023-03-01T23:54:48;46.50;;;26.90;;
65328;SDS011;51941;52.210;5.158;2023-03-01T23:57:16;40.10;;;25.27;;
65328;SDS011;51941;52.210;5.158;2023-03-01T23:59:42;43.05;;;26.10;;
